Silver City, Idaho
Current Conditions -  °F | °C
As of 1:55 PM on Thursday 27 Nov 2014 (Local Time) from KMAN Reporting Station
Few Clouds Few Clouds  
Wind Chill: 57°   Ceiling: Unl
Heat Index: 57°   Visibility: 10mi
Dew Point: 46°   Wind: 5mph
Humidity: 67%   Direction: 60°ENE
Pressure: 30.09"   Gusts: NA
Location:  42.9915°N, 116.705°W
Report Text: KMAN 272055Z AUTO 06004KT 10SM FEW085 14/08 A3009 RMK AO1
Loading
Personal Weather Stations






























Interactive Weather Map New forecast layout! Learn more

10-Day Weather Forecast

Advertisements
Track Severe Weather on mobile